Камери на живо
METAR for:LBWN (Varna Intl, VA, BG)
Text:LBWN 070530Z VRB04KT CAVOK 15/08 Q1026 NOSIG
Temperature: 15.0°C ( 59°F)
Dewpoint: 8.0°C ( 46°F) [RH = 63%]
Pressure (altimeter):30.30 inches Hg (1026.0 mb)
Winds:variable direction winds at 5 MPH (4 knots; 2.1 m/s)
Visibility:6 or more sm (10+ km)
Ceiling:ceiling and visibility are OK
Clouds:unknown

TAF for:LBWN (Varna Intl, VA, BG) issued at 0500 UTC 07 Oct 2022
Text:TAF LBWN 070500Z 0706/0806 VRB04KT 9999 SCT045
Forecast period:0600 to 0700 UTC 07 October 2022
Forecast type:FROM: standard forecast or significant change
Winds:variable direction winds at 5 MPH (4 knots; 2.1 m/s)
Visibility:6 or more sm (10+ km)
Ceiling:at least 12,000 feet AGL
Clouds: scattered clouds at 4500 feet AGL
Text:BECMG 0707/0709 06010KT
Forecast period:0700 to 1900 UTC 07 October 2022
Forecast type:BECOMING: Conditions expected to become as follows by 0900 UTC 07 October 2022
Winds:from the ENE (60 degrees) at 12 MPH (10 knots; 5.1 m/s)
Visibility:6 or more sm (10+ km)
Ceiling:at least 12,000 feet AGL
Clouds: scattered clouds at 4500 feet AGL
Text:BECMG 0719/0721 36010KT
Forecast period:1900 UTC 07 October 2022 to 0600 UTC 08 October 2022
Forecast type:BECOMING: Conditions expected to become as follows by 2100 UTC 07 October 2022
Winds:from the N (360 degrees) at 12 MPH (10 knots; 5.1 m/s)
Visibility:6 or more sm (10+ km)
Ceiling:at least 12,000 feet AGL
Clouds: scattered clouds at 4500 feet AGL